Hartshill, United Kingdom
Current Conditions -  °F | °C
As of 10:20 PM on Monday 24 Nov 2014 (Local Time) from EGBB Reporting Station
Light Fog Light Fog  
Wind Chill:   Ceiling: Unl
Heat Index:   Visibility: 6mi
Dew Point:   Wind: 3mph
Humidity: 100%   Direction: 150°SSE
Pressure: 30.33"   Gusts: NA
Location:  52.54°N, 1.52°W
Report Text: EGBB 242220Z 15003KT 9999 MIFG NSC M00/M00 Q1027
Loading
Personal Weather Stations






























Interactive Weather Map New forecast layout! Learn more

10-Day Weather Forecast

Advertisements
Track Severe Weather on mobile